Time;durP1;ratioP1;P1;durP2;ratioP2;P2;SDS_P1;SDS_P2;PMS_P1;PMS_P2;Temp;Humidity;BMP_temperature;BMP_pressure;BME280_temperature;BME280_humidity;BME280_pressure;Samples;Min_cycle;Max_cycle;Signal;HPM_P1;HPM_P2
2022/03/28 00:01:11;;;;;;;4.00;1.20;;;;;;;-6.99;52.24;99282.56;5987523;23;20137;-70
2022/03/28 00:03:37;;;;;;;5.22;1.13;;;;;;;-6.95;52.40;99284.16;6011034;23;20023;-69
2022/03/28 00:06:04;;;;;;;2.30;0.70;;;;;;;-6.91;51.87;99280.53;5987528;23;20056;-69
2022/03/28 00:08:30;;;;;;;2.40;0.63;;;;;;;-6.93;51.25;99282.34;6011195;23;20053;-68
2022/03/28 00:10:57;;;;;;;3.60;1.10;;;;;;;-6.97;51.87;99270.25;6011076;23;20434;-68
2022/03/28 00:13:22;;;;;;;2.85;0.77;;;;;;;-6.94;52.01;99285.91;6034821;23;20164;-68
2022/03/28 00:15:48;;;;;;;4.18;1.02;;;;;;;-7.01;52.07;99279.13;6010684;23;20474;-69
2022/03/28 00:18:14;;;;;;;4.25;0.98;;;;;;;-7.08;52.45;99279.31;6010889;23;20015;-68
2022/03/28 00:20:40;;;;;;;4.63;1.08;;;;;;;-7.09;53.05;99282.88;5987603;23;20031;-69
2022/03/28 00:23:07;;;;;;;3.05;0.90;;;;;;;-7.15;53.76;99293.56;5987307;23;20095;-70
2022/03/28 00:25:34;;;;;;;5.55;0.90;;;;;;;-7.13;53.06;99290.88;5964178;23;20034;-69
2022/03/28 00:27:59;;;;;;;5.57;0.85;;;;;;;-7.13;52.89;99289.13;6010941;23;20446;-69
2022/03/28 00:30:25;;;;;;;4.50;1.00;;;;;;;-7.13;52.80;99288.25;5987175;23;20035;-68
2022/03/28 00:32:52;;;;;;;4.93;1.13;;;;;;;-7.17;52.95;99292.75;5986756;23;20057;-69
2022/03/28 00:35:21;;;;;;;5.13;1.20;;;;;;;-7.12;53.12;99293.47;6010916;23;20411;-68
2022/03/28 00:37:47;;;;;;;2.60;0.77;;;;;;;-7.24;53.19;99278.09;6011980;23;20127;-70
2022/03/28 00:40:13;;;;;;;4.32;1.08;;;;;;;-7.45;53.34;99248.16;6010879;23;20063;-69
2022/03/28 00:42:38;;;;;;;5.35;1.10;;;;;;;-7.32;52.82;99280.97;6011267;23;20027;-69
2022/03/28 00:45:06;;;;;;;3.75;1.10;;;;;;;-7.26;52.67;99282.56;6011095;23;20202;-68
2022/03/28 00:47:33;;;;;;;4.35;0.70;;;;;;;-7.29;51.35;99269.53;5941667;23;20031;-69
2022/03/28 00:49:59;;;;;;;3.80;0.93;;;;;;;-7.26;51.47;99284.31;6010596;23;20090;-69
2022/03/28 00:52:25;;;;;;;4.93;0.93;;;;;;;-7.30;52.29;99283.56;6036204;23;20071;-68
2022/03/28 00:54:51;;;;;;;5.68;0.90;;;;;;;-7.29;51.71;99280.03;5989663;23;20091;-68
2022/03/28 00:57:17;;;;;;;4.25;1.08;;;;;;;-7.33;51.38;99284.50;6036494;23;20023;-69
2022/03/28 00:59:44;;;;;;;2.45;0.77;;;;;;;-7.37;51.80;99280.28;6012862;23;20035;-68
2022/03/28 01:02:10;;;;;;;7.85;1.33;;;;;;;-7.40;52.15;99279.50;5989565;23;20018;-69
2022/03/28 01:04:37;;;;;;;2.10;0.60;;;;;;;-7.40;52.82;99276.88;5990476;23;20091;-68
2022/03/28 01:07:06;;;;;;;1.17;0.60;;;;;;;-7.53;51.96;99250.19;6014171;23;20023;-71
2022/03/28 01:09:33;;;;;;;4.50;1.05;;;;;;;-7.44;51.69;99259.50;5989297;23;20418;-69
2022/03/28 01:11:59;;;;;;;4.10;1.10;;;;;;;-7.46;52.39;99269.19;5990374;23;20075;-68
2022/03/28 01:14:29;;;;;;;3.78;0.90;;;;;;;-7.59;51.41;99245.13;5989541;23;20027;-68
2022/03/28 01:19:39;;;;;;;3.78;0.82;;;;;;;-7.57;51.70;99270.41;6008588;23;20047;-69
2022/03/28 01:22:05;;;;;;;2.47;0.70;;;;;;;-7.55;51.80;99258.09;5989100;23;20027;-67
2022/03/28 01:24:31;;;;;;;4.85;1.05;;;;;;;-7.57;52.39;99254.66;5989132;23;20083;-67
2022/03/28 01:26:57;;;;;;;6.65;1.17;;;;;;;-7.52;52.18;99267.63;5988884;23;20038;-67
2022/03/28 01:29:23;;;;;;;2.10;0.70;;;;;;;-7.58;52.02;99263.44;5988591;23;20020;-67
2022/03/28 01:31:49;;;;;;;5.65;1.20;;;;;;;-7.61;51.99;99274.00;5988593;23;20469;-66
2022/03/28 01:34:19;;;;;;;5.47;1.23;;;;;;;-7.62;51.83;99271.44;6012404;23;20035;-66
2022/03/28 01:36:47;;;;;;;4.85;1.00;;;;;;;-7.64;52.02;99268.88;6012811;23;20155;-67
2022/03/28 01:39:13;;;;;;;5.72;1.20;;;;;;;-7.71;52.97;99276.97;6012930;23;20038;-67
2022/03/28 01:41:39;;;;;;;3.60;0.85;;;;;;;-7.70;53.59;99274.31;6012433;23;20031;-66
2022/03/28 01:44:05;;;;;;;4.30;0.98;;;;;;;-7.78;53.38;99271.06;5990567;23;20066;-67
2022/03/28 01:46:39;;;;;;;5.00;0.90;;;;;;;-7.72;53.04;99276.09;5990962;23;20031;-68
2022/03/28 01:49:05;;;;;;;5.05;1.45;;;;;;;-7.73;53.03;99263.91;6012661;23;20091;-67
2022/03/28 01:51:31;;;;;;;4.07;1.00;;;;;;;-7.80;53.67;99263.22;5967366;23;20466;-67
2022/03/28 01:53:59;;;;;;;7.53;1.20;;;;;;;-7.72;52.86;99255.13;6013658;23;20019;-67
2022/03/28 01:56:25;;;;;;;4.18;1.00;;;;;;;-7.67;52.87;99247.13;5990047;23;20031;-67
2022/03/28 01:58:52;;;;;;;3.33;0.93;;;;;;;-7.74;53.54;99235.97;5971005;23;20132;-66
2022/03/28 02:01:18;;;;;;;4.95;1.10;;;;;;;-7.75;54.05;99244.75;6016728;23;20090;-66
2022/03/28 02:03:44;;;;;;;3.20;1.35;;;;;;;-7.82;52.95;99232.72;6016907;23;20026;-67
2022/03/28 02:06:10;;;;;;;7.72;1.30;;;;;;;-7.75;53.16;99244.75;6065331;23;20023;-67
2022/03/28 02:08:36;;;;;;;6.05;1.35;;;;;;;-7.81;54.24;99237.91;6016419;23;20333;-66
2022/03/28 02:11:02;;;;;;;5.07;1.50;;;;;;;-7.90;54.37;99218.97;6040382;23;20072;-66
2022/03/28 02:13:28;;;;;;;3.70;1.00;;;;;;;-7.80;54.22;99236.13;6016631;23;20018;-68
2022/03/28 02:15:54;;;;;;;4.75;0.93;;;;;;;-7.80;54.64;99247.47;6040064;23;20034;-66
2022/03/28 02:18:20;;;;;;;2.38;0.68;;;;;;;-7.75;54.61;99250.00;6016204;23;20037;-68
2022/03/28 02:20:46;;;;;;;6.60;1.65;;;;;;;-7.75;54.28;99270.97;5992654;23;20038;-67
2022/03/28 02:23:12;;;;;;;4.28;1.05;;;;;;;-7.77;54.38;99272.78;5992849;23;20027;-67
2022/03/28 02:25:39;;;;;;;3.53;0.93;;;;;;;-7.82;54.82;99274.69;6016286;23;20096;-66
2022/03/28 02:28:05;;;;;;;3.50;0.60;;;;;;;-7.83;54.93;99267.72;6040486;23;20059;-65
2022/03/28 02:30:32;;;;;;;6.97;1.30;;;;;;;-7.89;55.02;99262.66;5993877;23;20154;-67
2022/03/28 02:32:58;;;;;;;5.53;0.90;;;;;;;-7.87;55.02;99261.69;5992928;23;20436;-67
2022/03/28 02:35:24;;;;;;;5.07;1.40;;;;;;;-7.84;54.64;99266.00;5993285;23;20034;-65
2022/03/28 02:37:50;;;;;;;9.48;2.45;;;;;;;-7.82;54.79;99258.94;6016089;23;20114;-67
2022/03/28 02:40:16;;;;;;;10.52;1.50;;;;;;;-7.84;54.25;99245.00;6039142;23;20473;-66
2022/03/28 02:42:43;;;;;;;5.82;1.15;;;;;;;-7.78;53.90;99260.56;6064019;23;20110;-68
2022/03/28 02:45:10;;;;;;;4.63;1.33;;;;;;;-7.74;54.46;99256.94;6041020;23;20106;-69
2022/03/28 02:47:36;;;;;;;6.40;1.67;;;;;;;-7.79;55.05;99257.09;5994105;23;20117;-68
2022/03/28 02:50:03;;;;;;;6.65;1.40;;;;;;;-7.82;54.33;99248.47;6018167;23;20418;-67
2022/03/28 02:52:29;;;;;;;5.30;1.65;;;;;;;-7.77;54.13;99244.78;6040418;23;20501;-66
2022/03/28 02:54:55;;;;;;;5.50;1.33;;;;;;;-7.74;55.00;99248.22;6017442;23;20027;-68
2022/03/28 02:57:21;;;;;;;5.43;1.25;;;;;;;-7.78;54.08;99229.09;6040075;23;20030;-68
2022/03/28 02:59:47;;;;;;;12.82;2.03;;;;;;;-7.74;54.53;99233.34;6016387;23;20030;-67
2022/03/28 03:02:13;;;;;;;12.70;1.92;;;;;;;-7.80;54.21;99216.00;6039182;23;20026;-67
2022/03/28 03:04:39;;;;;;;9.95;1.55;;;;;;;-7.74;54.21;99228.09;6015788;23;20030;-66
2022/03/28 03:07:05;;;;;;;6.25;1.65;;;;;;;-7.72;54.06;99231.50;6015509;23;20034;-67
2022/03/28 03:09:31;;;;;;;8.07;1.50;;;;;;;-7.72;53.84;99222.78;6062888;23;20019;-66
2022/03/28 03:11:57;;;;;;;7.25;1.85;;;;;;;-7.72;53.87;99223.63;6039691;23;20023;-66
2022/03/28 03:14:23;;;;;;;15.55;1.92;;;;;;;-7.69;54.15;99217.44;6065155;23;20106;-67
2022/03/28 03:16:50;;;;;;;7.88;1.40;;;;;;;-7.68;53.95;99214.75;6016290;23;20406;-67
2022/03/28 03:19:16;;;;;;;7.75;1.48;;;;;;;-7.69;53.80;99207.78;6062901;23;20038;-66
2022/03/28 03:21:42;;;;;;;5.57;1.20;;;;;;;-7.71;53.63;99209.63;6015741;23;20030;-67
2022/03/28 03:24:08;;;;;;;11.82;1.60;;;;;;;-7.65;53.54;99214.66;6014943;23;20121;-67
2022/03/28 03:26:34;;;;;;;15.43;1.73;;;;;;;-7.61;53.83;99216.28;6017168;23;20403;-66
2022/03/28 03:29:00;;;;;;;7.47;1.67;;;;;;;-7.56;53.42;99205.66;6015178;23;20116;-66
2022/03/28 03:31:26;;;;;;;9.52;1.90;;;;;;;-7.58;53.64;99189.94;6086405;23;20027;-66
2022/03/28 03:33:52;;;;;;;8.35;1.65;;;;;;;-7.56;53.77;99187.28;6031151;23;20091;-67
2022/03/28 03:36:18;;;;;;;8.70;1.73;;;;;;;-7.50;53.31;99191.47;6015194;23;20083;-67
2022/03/28 03:38:44;;;;;;;11.90;2.00;;;;;;;-7.37;53.61;99208.53;6005685;23;20106;-67
2022/03/28 03:41:10;;;;;;;9.77;1.95;;;;;;;-7.33;53.65;99202.28;6015785;23;20434;-66
2022/03/28 03:43:36;;;;;;;8.43;1.58;;;;;;;-7.37;53.64;99198.88;6015571;23;20019;-67
2022/03/28 03:46:02;;;;;;;8.63;1.75;;;;;;;-7.35;53.46;99201.44;6015667;23;20430;-67
2022/03/28 03:48:29;;;;;;;6.38;1.10;;;;;;;-7.31;53.53;99197.84;6015639;23;20082;-67
2022/03/28 03:50:55;;;;;;;13.70;1.90;;;;;;;-7.29;53.62;99201.25;6015257;23;20433;-67
2022/03/28 03:53:23;;;;;;;7.57;1.60;;;;;;;-7.28;53.03;99192.47;6015891;23;20445;-66
2022/03/28 03:55:49;;;;;;;6.95;1.08;;;;;;;-7.16;53.50;99189.44;6063729;23;20027;-67
2022/03/28 03:58:15;;;;;;;9.13;1.70;;;;;;;-7.22;53.00;99179.13;6039595;23;20034;-67
2022/03/28 04:00:41;;;;;;;13.70;1.30;;;;;;;-7.15;53.10;99179.78;6040433;23;20049;-64
2022/03/28 04:03:07;;;;;;;7.20;1.30;;;;;;;-7.08;52.63;99187.41;5994402;23;20365;-67
2022/03/28 04:05:37;;;;;;;4.68;1.23;;;;;;;-7.06;53.30;99187.34;6061415;23;20070;-68
2022/03/28 04:08:06;;;;;;;5.20;1.20;;;;;;;-6.92;52.78;99184.22;6062839;23;20474;-69
2022/03/28 04:10:34;;;;;;;8.80;1.60;;;;;;;-6.70;51.99;99193.06;6015022;23;20045;-67
2022/03/28 04:13:02;;;;;;;14.85;1.88;;;;;;;-6.84;51.70;99156.78;6061199;23;20042;-67
2022/03/28 04:15:28;;;;;;;12.68;1.80;;;;;;;-6.64;51.80;99184.97;6042245;23;20403;-74
2022/03/28 04:17:54;;;;;;;15.45;1.95;;;;;;;-6.60;51.76;99186.56;6014997;23;20030;-68
2022/03/28 04:20:20;;;;;;;10.25;1.42;;;;;;;-6.64;51.09;99176.22;6062512;23;20120;-69
2022/03/28 04:22:46;;;;;;;7.45;2.03;;;;;;;-6.60;51.00;99175.19;5992150;23;20027;-66
2022/03/28 04:25:13;;;;;;;8.70;1.52;;;;;;;-6.54;51.05;99180.25;6038030;23;20129;-67
2022/03/28 04:27:40;;;;;;;16.00;1.70;;;;;;;-6.62;50.72;99177.00;5992523;23;20035;-66
2022/03/28 04:30:08;;;;;;;11.85;1.48;;;;;;;-6.45;50.97;99185.16;6038765;23;20027;-69
2022/03/28 04:32:35;;;;;;;14.73;1.60;;;;;;;-6.45;50.75;99176.41;5993205;23;20432;-66
2022/03/28 04:35:02;;;;;;;6.25;1.50;;;;;;;-6.52;50.61;99182.81;6039239;23;20027;-66
2022/03/28 04:37:37;;;;;;;11.73;2.53;;;;;;;-6.55;50.92;99163.59;6038653;23;20058;-67
2022/03/28 04:40:05;;;;;;;9.57;1.75;;;;;;;-6.59;51.24;99166.38;6016327;23;20092;-65
2022/03/28 04:42:31;;;;;;;9.55;1.73;;;;;;;-6.67;51.05;99158.78;6065115;23;20027;-69
2022/03/28 04:44:57;;;;;;;15.98;1.92;;;;;;;-6.58;51.56;99176.88;6037948;23;20357;-65
2022/03/28 04:47:23;;;;;;;20.70;2.03;;;;;;;-6.50;51.40;99170.47;6039074;23;20031;-65
2022/03/28 04:49:49;;;;;;;7.68;1.60;;;;;;;-6.57;51.27;99170.69;6015031;23;20022;-68
2022/03/28 04:52:15;;;;;;;11.55;1.73;;;;;;;-6.46;51.14;99172.06;6016406;23;20069;-67
2022/03/28 04:54:41;;;;;;;11.10;1.75;;;;;;;-6.28;50.59;99166.13;6039539;23;20023;-65
2022/03/28 04:57:07;;;;;;;9.13;2.03;;;;;;;-6.25;50.69;99158.13;6015245;23;20555;-66
2022/03/28 04:59:33;;;;;;;9.10;1.63;;;;;;;-6.21;50.59;99140.44;6039212;23;20446;-66
2022/03/28 05:01:59;;;;;;;7.93;2.30;;;;;;;-6.32;49.95;99139.06;5991715;23;20037;-65
2022/03/28 05:04:25;;;;;;;4.70;1.35;;;;;;;-6.25;50.18;99146.72;6039221;23;20265;-65
2022/03/28 05:06:55;;;;;;;9.27;1.98;;;;;;;-6.18;50.07;99135.91;5992240;23;20049;-67
2022/03/28 05:09:21;;;;;;;13.57;2.53;;;;;;;-6.21;50.32;99115.00;5991801;23;20027;-66
2022/03/28 05:11:46;;;;;;;9.48;1.98;;;;;;;-5.97;50.05;99133.34;6038966;23;20035;-66
2022/03/28 05:14:12;;;;;;;8.15;1.63;;;;;;;-5.93;49.05;99125.25;5992255;23;20026;-66
2022/03/28 05:16:38;;;;;;;18.80;2.47;;;;;;;-6.14;49.93;99120.88;6014995;23;20027;-66
2022/03/28 05:19:04;;;;;;;18.15;2.10;;;;;;;-6.03;50.48;99123.06;6014920;23;20050;-66
2022/03/28 05:21:31;;;;;;;14.05;1.92;;;;;;;-5.92;49.97;99105.09;6014892;23;20041;-66
2022/03/28 05:23:57;;;;;;;7.55;1.85;;;;;;;-5.89;49.27;99107.53;6014278;23;20113;-66
2022/03/28 05:26:23;;;;;;;9.27;2.33;;;;;;;-5.80;49.20;99109.81;6064294;23;20151;-65
2022/03/28 05:28:49;;;;;;;16.08;2.10;;;;;;;-5.79;49.41;99093.09;5991717;23;20058;-65
2022/03/28 05:31:15;;;;;;;10.27;1.65;;;;;;;-5.68;48.31;99100.56;6015048;23;20109;-65
2022/03/28 05:33:41;;;;;;;14.25;3.25;;;;;;;-5.77;49.08;99086.00;6014778;23;20079;-66
2022/03/28 05:36:07;;;;;;;5.57;1.48;;;;;;;-5.59;48.42;99079.97;6038249;23;20038;-66
2022/03/28 05:38:33;;;;;;;11.25;1.70;;;;;;;-5.40;47.91;99071.28;6064926;23;20097;-65
2022/03/28 05:40:59;;;;;;;8.55;2.10;;;;;;;-5.67;48.21;99068.88;5994287;23;20162;-66
2022/03/28 05:43:25;;;;;;;8.65;1.92;;;;;;;-5.58;48.42;99055.34;6041870;23;20054;-64
2022/03/28 05:45:52;;;;;;;7.63;1.52;;;;;;;-5.52;48.37;99042.81;6016969;23;20031;-65
2022/03/28 05:48:19;;;;;;;14.77;2.45;;;;;;;-5.62;48.14;99048.50;5993908;23;20485;-68
2022/03/28 05:50:46;;;;;;;10.65;1.60;;;;;;;-5.43;48.01;99027.50;6018184;23;20050;-67
2022/03/28 05:53:13;;;;;;;8.15;1.42;;;;;;;-5.39;48.27;99026.44;6041298;23;20033;-67
2022/03/28 05:55:43;;;;;;;8.05;1.73;;;;;;;-5.25;47.63;99028.47;6041326;23;20363;-66
2022/03/28 05:58:10;;;;;;;10.07;1.63;;;;;;;-5.48;48.28;99026.00;6016782;23;20061;-64
2022/03/28 06:00:37;;;;;;;6.40;1.63;;;;;;;-5.50;48.19;99022.56;6016671;23;20129;-65
2022/03/28 06:03:06;;;;;;;6.60;1.40;;;;;;;-5.51;48.04;99026.13;6016377;23;20026;-66
2022/03/28 06:05:33;;;;;;;5.82;1.20;;;;;;;-5.34;48.24;99020.97;5993248;23;20035;-65
2022/03/28 06:07:59;;;;;;;10.02;1.70;;;;;;;-5.50;47.90;99017.31;6040398;23;20045;-65
2022/03/28 06:10:25;;;;;;;13.10;1.55;;;;;;;-5.21;47.50;99003.69;5992790;23;20030;-66
2022/03/28 06:12:52;;;;;;;7.45;1.58;;;;;;;-5.17;47.30;99005.25;5993008;23;20034;-66
2022/03/28 06:15:18;;;;;;;9.27;1.95;;;;;;;-5.06;46.72;99001.28;5992449;23;20027;-67
2022/03/28 06:17:44;;;;;;;6.45;2.42;;;;;;;-5.07;46.97;98997.81;6017062;23;20037;-66
2022/03/28 06:20:11;;;;;;;9.02;1.48;;;;;;;-5.18;45.83;98977.22;6040470;23;20042;-66
2022/03/28 06:22:37;;;;;;;9.85;1.80;;;;;;;-5.19;47.07;98969.38;6041324;23;20026;-69
2022/03/28 06:25:05;;;;;;;5.75;1.42;;;;;;;-4.94;46.55;98961.19;6041115;23;20078;-66
2022/03/28 06:27:31;;;;;;;10.32;1.50;;;;;;;-5.02;45.84;98955.44;5994092;23;20095;-66
2022/03/28 06:29:57;;;;;;;8.90;2.05;;;;;;;-4.79;46.19;98941.16;6017294;23;20027;-66
2022/03/28 06:32:23;;;;;;;9.02;1.63;;;;;;;-4.88;46.00;98924.00;5994394;23;20087;-66
2022/03/28 06:34:52;;;;;;;5.50;1.50;;;;;;;-4.79;46.13;98918.31;6018994;23;20083;-66
2022/03/28 06:37:22;;;;;;;8.35;1.55;;;;;;;-4.89;46.60;98917.88;6041590;23;20378;-66
2022/03/28 06:39:48;;;;;;;8.45;1.63;;;;;;;-4.68;46.36;98918.66;5993049;23;20561;-66
2022/03/28 06:42:14;;;;;;;16.05;2.40;;;;;;;-4.80;46.17;98908.69;5993602;23;20070;-65
2022/03/28 06:44:40;;;;;;;9.48;1.73;;;;;;;-4.87;46.47;98907.25;6016820;23;20030;-66
2022/03/28 06:47:06;;;;;;;11.20;1.70;;;;;;;-4.72;45.49;98911.78;6017018;23;20038;-67
2022/03/28 06:49:32;;;;;;;9.75;1.90;;;;;;;-4.51;45.68;98903.78;6016597;23;20030;-66
2022/03/28 06:51:58;;;;;;;10.85;2.03;;;;;;;-4.72;45.01;98889.84;6017414;23;20058;-68
2022/03/28 06:54:25;;;;;;;9.70;2.10;;;;;;;-4.66;44.90;98893.03;6016550;23;20099;-66
2022/03/28 06:56:51;;;;;;;6.90;1.60;;;;;;;-4.53;44.46;98880.13;5993525;23;20034;-66
2022/03/28 06:59:17;;;;;;;8.82;2.00;;;;;;;-4.69;45.00;98874.72;5993206;23;20061;-66
2022/03/28 07:01:43;;;;;;;8.02;1.85;;;;;;;-4.53;43.68;98868.69;5992825;23;20030;-66
2022/03/28 07:04:12;;;;;;;9.93;2.03;;;;;;;-4.39;44.35;98860.94;5993479;23;20037;-66
2022/03/28 07:06:38;;;;;;;11.90;2.10;;;;;;;-4.37;44.16;98832.72;5993440;23;20037;-65
2022/03/28 07:09:05;;;;;;;10.95;1.75;;;;;;;-4.14;44.24;98856.13;6016353;23;20041;-67
2022/03/28 07:11:32;;;;;;;7.80;1.70;;;;;;;-4.28;43.61;98848.06;6015878;23;20493;-65
2022/03/28 07:13:58;;;;;;;11.07;1.90;;;;;;;-4.11;43.56;98834.00;6015863;23;20106;-65
2022/03/28 07:16:24;;;;;;;6.63;2.13;;;;;;;-4.19;42.61;98810.66;6039241;23;20033;-65
2022/03/28 07:18:50;;;;;;;11.48;1.85;;;;;;;-4.16;43.27;98826.34;6015982;23;20018;-65
2022/03/28 07:21:16;;;;;;;9.85;2.38;;;;;;;-4.15;43.47;98812.22;6015836;23;20026;-65
2022/03/28 07:23:43;;;;;;;8.75;1.60;;;;;;;-4.28;43.20;98800.56;6015339;23;20050;-65
2022/03/28 07:26:09;;;;;;;11.77;2.08;;;;;;;-4.49;42.51;98783.25;6015635;23;20030;-67
2022/03/28 07:28:39;;;;;;;11.25;2.20;;;;;;;-4.37;42.60;98774.69;6015709;23;20185;-66
2022/03/28 07:31:08;;;;;;;7.40;1.30;;;;;;;-4.25;42.25;98774.03;6039676;23;20038;-66
2022/03/28 07:33:41;;;;;;;7.22;1.55;;;;;;;-4.43;42.77;98744.19;6015859;23;20119;-66
2022/03/28 07:36:08;;;;;;;12.13;1.60;;;;;;;-4.26;42.55;98767.06;6039747;23;20390;-66
2022/03/28 07:38:34;;;;;;;7.70;1.38;;;;;;;-4.23;42.26;98751.06;5992480;23;20105;-66
2022/03/28 07:41:02;;;;;;;6.95;1.40;;;;;;;-4.42;41.97;98718.69;6039605;23;20034;-66
2022/03/28 07:43:28;;;;;;;7.32;1.30;;;;;;;-4.32;41.87;98735.72;5993294;23;20034;-66
2022/03/28 07:45:54;;;;;;;7.30;1.27;;;;;;;-4.28;42.65;98731.97;6017308;23;20031;-65
2022/03/28 07:48:22;;;;;;;6.70;1.50;;;;;;;-4.42;42.94;98709.00;6017531;23;20022;-65
2022/03/28 07:50:49;;;;;;;7.28;1.48;;;;;;;-4.27;42.56;98712.59;6064928;23;20370;-65
2022/03/28 07:53:15;;;;;;;5.88;1.40;;;;;;;-4.33;43.07;98702.38;6039117;23;20046;-65
2022/03/28 07:55:42;;;;;;;8.52;1.58;;;;;;;-4.33;43.78;98669.84;6016829;23;20454;-66
2022/03/28 07:58:09;;;;;;;9.60;1.70;;;;;;;-4.33;43.01;98654.88;6016074;23;20109;-66
2022/03/28 08:00:37;;;;;;;7.55;1.20;;;;;;;-4.49;42.98;98664.56;6016225;23;20162;-66
2022/03/28 08:03:04;;;;;;;9.57;1.60;;;;;;;-4.23;43.34;98687.75;6016321;23;20086;-66
2022/03/28 08:05:29;;;;;;;11.38;1.80;;;;;;;-4.47;45.21;98689.06;5991967;23;20449;-66
2022/03/28 08:07:55;;;;;;;8.63;1.25;;;;;;;-4.35;45.07;98688.41;5992224;23;20034;-66
2022/03/28 08:10:23;;;;;;;9.30;1.40;;;;;;;-4.45;46.31;98672.22;6015673;23;20018;-66
2022/03/28 08:12:49;;;;;;;7.18;1.45;;;;;;;-4.31;46.15;98668.84;6015482;23;20401;-65
2022/03/28 08:15:16;;;;;;;8.00;1.60;;;;;;;-4.39;46.89;98650.81;5992611;23;20031;-65
2022/03/28 08:17:42;;;;;;;13.50;1.65;;;;;;;-4.54;47.55;98624.38;5992205;23;20026;-66
2022/03/28 08:20:11;;;;;;;7.07;1.20;;;;;;;-4.44;48.36;98657.25;6015371;23;20019;-66
2022/03/28 08:22:38;;;;;;;6.68;1.20;;;;;;;-4.37;49.10;98632.25;6015595;23;20038;-66
2022/03/28 08:25:04;;;;;;;8.05;1.45;;;;;;;-4.46;49.26;98622.16;6015164;23;20030;-67
2022/03/28 08:27:30;;;;;;;6.55;1.30;;;;;;;-4.55;49.01;98598.94;6039019;23;20093;-67
2022/03/28 08:29:56;;;;;;;17.88;1.48;;;;;;;-4.23;49.08;98610.38;6015737;23;20027;-65
2022/03/28 08:32:22;;;;;;;8.95;1.30;;;;;;;-4.14;49.05;98575.56;5992103;23;20030;-66
2022/03/28 08:34:49;;;;;;;12.15;1.70;;;;;;;-4.24;49.56;98583.16;5968408;23;20022;-65
2022/03/28 08:37:16;;;;;;;15.40;1.80;;;;;;;-4.51;51.77;98584.66;6015728;23;20038;-65
2022/03/28 08:39:46;;;;;;;7.30;1.38;;;;;;;-4.64;54.03;98566.03;5992249;23;20030;-66
2022/03/28 08:42:12;;;;;;;9.38;1.35;;;;;;;-4.57;54.33;98569.16;6015212;23;20114;-65
2022/03/28 08:44:39;;;;;;;5.30;1.13;;;;;;;-4.59;54.89;98547.31;6014827;23;20074;-65
2022/03/28 08:47:08;;;;;;;8.18;1.20;;;;;;;-4.38;55.83;98530.31;6062411;23;20096;-65
2022/03/28 08:49:35;;;;;;;7.28;1.52;;;;;;;-4.33;55.61;98527.41;6064485;23;20026;-66
2022/03/28 08:52:02;;;;;;;6.75;1.40;;;;;;;-4.45;55.59;98513.13;6015995;23;20023;-66
2022/03/28 08:54:29;;;;;;;21.77;2.80;;;;;;;-4.58;56.89;98501.56;6014932;23;20053;-66
2022/03/28 08:56:55;;;;;;;6.70;1.85;;;;;;;-4.63;57.91;98497.38;6015077;23;20070;-66
2022/03/28 08:59:21;;;;;;;9.25;1.40;;;;;;;-4.77;58.84;98475.34;5991742;23;20058;-65
2022/03/28 09:01:48;;;;;;;12.32;2.75;;;;;;;-4.95;59.83;98471.94;5968840;23;20468;-65
2022/03/28 09:04:15;;;;;;;5.85;1.38;;;;;;;-4.90;59.98;98438.28;5992018;23;20031;-65
2022/03/28 09:06:43;;;;;;;10.88;1.30;;;;;;;-4.88;61.80;98452.22;5991820;23;20058;-65
2022/03/28 09:09:12;;;;;;;10.73;1.63;;;;;;;-4.78;62.24;98436.75;6039848;23;20019;-65
2022/03/28 09:11:38;;;;;;;7.80;1.58;;;;;;;-4.72;61.96;98431.13;6016141;23;20022;-66
2022/03/28 09:14:05;;;;;;;5.78;1.27;;;;;;;-4.58;62.21;98425.94;6042867;23;20026;-67
2022/03/28 09:17:08;;;;;;;7.20;1.70;;;;;;;-4.35;61.96;98422.00;5993430;23;20042;-66
2022/03/28 09:19:57;;;;;;;7.25;1.70;;;;;;;-4.60;64.12;98409.38;6018345;23;20030;-66
2022/03/28 09:22:25;;;;;;;36.22;2.80;;;;;;;-4.86;67.14;98435.41;6017832;23;20042;-67
2022/03/28 09:24:55;;;;;;;13.73;1.92;;;;;;;-5.12;70.11;98396.44;5995016;23;20029;-65
2022/03/28 09:27:23;;;;;;;6.85;1.83;;;;;;;-5.07;73.31;98404.13;6018396;23;20083;-65
2022/03/28 09:30:00;;;;;;;6.53;2.20;;;;;;;-5.28;75.55;98385.91;6041609;23;20023;-65
2022/03/28 09:32:31;;;;;;;8.30;1.83;;;;;;;-5.02;75.83;98392.38;6019552;23;20030;-67
2022/03/28 09:35:09;;;;;;;17.40;2.40;;;;;;;-5.27;77.67;98387.59;6018830;23;20117;-66
2022/03/28 09:37:58;;;;;;;16.00;2.47;;;;;;;-5.24;79.34;98378.69;6042083;23;20027;-66
2022/03/28 09:40:41;;;;;;;16.20;2.60;;;;;;;-5.13;80.83;98374.53;6042438;23;20095;-65
2022/03/28 09:43:18;;;;;;;32.58;4.15;;;;;;;-5.16;80.34;98369.41;6041316;23;20335;-66
2022/03/28 09:45:53;;;;;;;11.95;2.40;;;;;;;-5.14;82.22;98341.22;6040825;23;20487;-65
2022/03/28 09:48:20;;;;;;;7.60;2.97;;;;;;;-5.19;83.31;98359.09;6016441;23;20555;-65
2022/03/28 09:50:56;;;;;;;7.70;2.08;;;;;;;-5.18;82.85;98349.38;6017961;23;20524;-66
2022/03/28 09:53:31;;;;;;;10.18;2.13;;;;;;;-5.17;82.61;98308.94;6040666;23;20091;-67
2022/03/28 09:56:06;;;;;;;11.15;2.80;;;;;;;-5.22;83.30;98306.56;5995165;23;20079;-65
2022/03/28 09:58:48;;;;;;;6.40;1.77;;;;;;;-5.30;83.62;98269.28;6041515;23;20799;-65
2022/03/28 10:01:22;;;;;;;10.02;2.33;;;;;;;-5.09;85.11;98307.56;6019000;23;20090;-65
2022/03/28 10:03:51;;;;;;;10.23;2.42;;;;;;;-5.20;85.86;98278.34;6017288;23;20034;-68
2022/03/28 10:06:17;;;;;;;8.70;2.65;;;;;;;-5.12;84.76;98286.69;6064536;23;20018;-65
2022/03/28 10:08:44;;;;;;;9.05;2.40;;;;;;;-5.24;85.90;98290.00;6064765;23;20039;-65
2022/03/28 10:11:10;;;;;;;11.82;2.47;;;;;;;-5.05;87.11;98292.41;6016026;23;20023;-66
2022/03/28 10:13:37;;;;;;;12.27;2.15;;;;;;;-5.17;86.32;98272.91;5970411;23;20095;-65
2022/03/28 10:16:09;;;;;;;9.48;2.35;;;;;;;-5.05;87.43;98271.34;6017279;23;20019;-65
2022/03/28 10:18:39;;;;;;;35.85;5.63;;;;;;;-5.10;87.49;98268.97;6017713;23;20136;-65
2022/03/28 10:21:15;;;;;;;10.65;2.65;;;;;;;-5.04;87.90;98267.78;6017289;23;20100;-67
2022/03/28 10:24:00;;;;;;;6.53;1.90;;;;;;;-5.06;93.44;98269.66;6040429;23;20031;-65
2022/03/28 10:26:47;;;;;;;10.43;2.40;;;;;;;-5.07;90.39;98261.84;6039858;23;20019;-65
2022/03/28 10:29:17;;;;;;;11.48;2.22;;;;;;;-5.15;88.90;98234.16;6016916;23;20027;-65
2022/03/28 10:31:53;;;;;;;45.28;4.18;;;;;;;-5.12;89.35;98239.25;5969373;23;20118;-64
2022/03/28 10:34:45;;;;;;;12.23;3.60;;;;;;;-5.12;92.06;98259.47;6016988;23;20159;-65
2022/03/28 10:37:28;;;;;;;9.80;2.40;;;;;;;-5.13;92.52;98224.38;6041013;23;20019;-65
2022/03/28 10:40:13;;;;;;;11.43;2.30;;;;;;;-5.11;89.99;98211.97;5994040;23;20042;-65
2022/03/28 10:42:49;;;;;;;13.52;2.30;;;;;;;-4.97;90.16;98199.75;6016619;23;20102;-64
2022/03/28 10:45:24;;;;;;;9.48;2.70;;;;;;;-5.05;97.10;98202.00;6041458;23;20030;-66
2022/03/28 10:47:56;;;;;;;25.77;4.25;;;;;;;-5.08;91.87;98171.44;5994689;23;20083;-65
2022/03/28 10:50:26;;;;;;;9.00;2.30;;;;;;;-4.95;91.79;98174.19;6039680;23;20427;-65
2022/03/28 10:53:05;;;;;;;20.05;3.65;;;;;;;-4.94;91.04;98170.59;5992821;23;20102;-64
2022/03/28 10:55:37;;;;;;;29.42;4.25;;;;;;;-4.87;91.12;98161.38;6040103;23;20037;-66
2022/03/28 10:58:13;;;;;;;7.38;2.38;;;;;;;-4.89;90.63;98139.56;6039891;23;20027;-65
2022/03/28 11:01:07;;;;;;;35.15;5.07;;;;;;;-5.01;89.92;98135.00;6016313;23;20094;-66
2022/03/28 11:03:37;;;;;;;8.07;2.40;;;;;;;-4.90;90.74;98119.41;6040215;23;20027;-65
2022/03/28 11:06:04;;;;;;;9.02;2.85;;;;;;;-4.93;92.12;98123.09;6040200;23;20051;-65
2022/03/28 11:08:38;;;;;;;16.35;3.35;;;;;;;-4.93;91.76;98112.56;6016683;23;20019;-66
2022/03/28 11:11:25;;;;;;;9.05;2.53;;;;;;;-4.84;92.02;98137.47;6064684;23;20030;-65
2022/03/28 11:14:00;;;;;;;8.05;2.72;;;;;;;-4.79;91.84;98137.19;6016477;23;20023;-66
2022/03/28 11:16:44;;;;;;;7.20;2.38;;;;;;;-4.79;92.51;98139.84;6041040;23;20470;-66
2022/03/28 11:19:31;;;;;;;8.93;3.00;;;;;;;-4.84;93.56;98132.22;6017174;23;20046;-65
2022/03/28 11:22:03;;;;;;;14.55;3.20;;;;;;;-4.80;93.75;98104.72;6018346;23;20058;-65
2022/03/28 11:24:43;;;;;;;11.48;3.13;;;;;;;-4.79;93.02;98092.38;6065596;23;20026;-66
2022/03/28 11:27:09;;;;;;;9.05;3.00;;;;;;;-4.59;93.34;98088.53;6017917;23;20369;-65
2022/03/28 11:29:35;;;;;;;12.05;3.00;;;;;;;-4.56;92.62;98068.09;6018627;23;20038;-66
2022/03/28 11:32:06;;;;;;;10.20;3.00;;;;;;;-4.65;92.18;98068.66;6017810;23;20027;-66
2022/03/28 11:34:32;;;;;;;13.40;3.10;;;;;;;-4.45;93.14;98059.53;6040811;23;20019;-65
2022/03/28 11:36:58;;;;;;;12.63;3.53;;;;;;;-4.57;92.05;98061.16;6016862;23;20035;-65
2022/03/28 11:39:27;;;;;;;19.20;4.15;;;;;;;-4.51;91.56;98054.63;5970356;23;20035;-65